sensor_id;sensor_type;location;lat;lon;timestamp;P1;durP1;ratioP1;P2;durP2;ratioP2
78891;SDS011;68368;51.728;5.248;2023-06-19T00:02:54;8.50;;;7.40;;
78891;SDS011;68368;51.728;5.248;2023-06-19T00:04:58;11.70;;;7.60;;
78891;SDS011;68368;51.728;5.248;2023-06-19T00:07:03;10.00;;;7.70;;
78891;SDS011;68368;51.728;5.248;2023-06-19T00:09:07;10.20;;;8.20;;
78891;SDS011;68368;51.728;5.248;2023-06-19T00:11:11;10.90;;;8.30;;
78891;SDS011;68368;51.728;5.248;2023-06-19T00:13:15;9.80;;;7.70;;
78891;SDS011;68368;51.728;5.248;2023-06-19T00:15:20;10.50;;;7.60;;
78891;SDS011;68368;51.728;5.248;2023-06-19T00:17:24;8.20;;;6.60;;
78891;SDS011;68368;51.728;5.248;2023-06-19T00:19:27;8.40;;;6.70;;
78891;SDS011;68368;51.728;5.248;2023-06-19T00:21:31;7.80;;;6.70;;
78891;SDS011;68368;51.728;5.248;2023-06-19T00:23:37;8.60;;;6.10;;
78891;SDS011;68368;51.728;5.248;2023-06-19T00:25:41;7.50;;;5.90;;
78891;SDS011;68368;51.728;5.248;2023-06-19T00:27:45;8.00;;;5.70;;
78891;SDS011;68368;51.728;5.248;2023-06-19T00:29:50;7.30;;;5.60;;
78891;SDS011;68368;51.728;5.248;2023-06-19T00:31:53;9.70;;;6.40;;
78891;SDS011;68368;51.728;5.248;2023-06-19T00:33:56;6.10;;;4.60;;
78891;SDS011;68368;51.728;5.248;2023-06-19T00:36:00;6.40;;;5.00;;
78891;SDS011;68368;51.728;5.248;2023-06-19T00:38:04;6.80;;;4.70;;
78891;SDS011;68368;51.728;5.248;2023-06-19T00:40:09;5.70;;;4.70;;
78891;SDS011;68368;51.728;5.248;2023-06-19T00:42:20;6.90;;;4.30;;
78891;SDS011;68368;51.728;5.248;2023-06-19T00:44:25;6.40;;;4.40;;
78891;SDS011;68368;51.728;5.248;2023-06-19T00:46:29;6.50;;;4.40;;
78891;SDS011;68368;51.728;5.248;2023-06-19T00:48:33;5.10;;;3.60;;
78891;SDS011;68368;51.728;5.248;2023-06-19T00:50:43;5.30;;;3.60;;
78891;SDS011;68368;51.728;5.248;2023-06-19T00:52:46;4.50;;;3.60;;
78891;SDS011;68368;51.728;5.248;2023-06-19T00:54:56;5.20;;;3.40;;
78891;SDS011;68368;51.728;5.248;2023-06-19T00:57:00;5.30;;;3.60;;
78891;SDS011;68368;51.728;5.248;2023-06-19T00:59:04;5.20;;;3.20;;
78891;SDS011;68368;51.728;5.248;2023-06-19T01:01:14;4.40;;;3.00;;
78891;SDS011;68368;51.728;5.248;2023-06-19T01:03:17;4.10;;;2.90;;
78891;SDS011;68368;51.728;5.248;2023-06-19T01:05:23;4.30;;;2.90;;
78891;SDS011;68368;51.728;5.248;2023-06-19T01:07:28;4.00;;;2.90;;
78891;SDS011;68368;51.728;5.248;2023-06-19T01:09:38;4.20;;;2.60;;
78891;SDS011;68368;51.728;5.248;2023-06-19T01:11:50;5.20;;;3.20;;
78891;SDS011;68368;51.728;5.248;2023-06-19T01:13:58;5.70;;;3.30;;
78891;SDS011;68368;51.728;5.248;2023-06-19T01:16:05;4.50;;;3.30;;
78891;SDS011;68368;51.728;5.248;2023-06-19T01:18:14;5.20;;;3.10;;
78891;SDS011;68368;51.728;5.248;2023-06-19T01:20:20;4.90;;;2.90;;
78891;SDS011;68368;51.728;5.248;2023-06-19T01:22:25;4.90;;;3.00;;
78891;SDS011;68368;51.728;5.248;2023-06-19T01:24:28;5.20;;;3.20;;
78891;SDS011;68368;51.728;5.248;2023-06-19T01:26:32;5.50;;;3.30;;
78891;SDS011;68368;51.728;5.248;2023-06-19T01:28:38;5.40;;;2.90;;
78891;SDS011;68368;51.728;5.248;2023-06-19T01:30:43;4.20;;;3.10;;
78891;SDS011;68368;51.728;5.248;2023-06-19T01:32:49;3.80;;;2.90;;
78891;SDS011;68368;51.728;5.248;2023-06-19T01:35:01;3.00;;;2.10;;
78891;SDS011;68368;51.728;5.248;2023-06-19T01:37:06;3.50;;;2.30;;
78891;SDS011;68368;51.728;5.248;2023-06-19T01:39:12;3.70;;;2.40;;
78891;SDS011;68368;51.728;5.248;2023-06-19T01:41:16;3.90;;;2.30;;
78891;SDS011;68368;51.728;5.248;2023-06-19T01:43:22;4.40;;;2.20;;
78891;SDS011;68368;51.728;5.248;2023-06-19T01:45:27;4.90;;;2.30;;
78891;SDS011;68368;51.728;5.248;2023-06-19T01:47:31;3.00;;;2.00;;
78891;SDS011;68368;51.728;5.248;2023-06-19T01:49:35;4.00;;;2.30;;
78891;SDS011;68368;51.728;5.248;2023-06-19T01:51:38;2.80;;;1.90;;
78891;SDS011;68368;51.728;5.248;2023-06-19T01:53:42;4.00;;;1.40;;
78891;SDS011;68368;51.728;5.248;2023-06-19T01:55:45;3.90;;;1.90;;
78891;SDS011;68368;51.728;5.248;2023-06-19T01:57:49;3.10;;;1.90;;
78891;SDS011;68368;51.728;5.248;2023-06-19T01:59:52;3.20;;;1.90;;
78891;SDS011;68368;51.728;5.248;2023-06-19T02:01:58;2.90;;;2.00;;
78891;SDS011;68368;51.728;5.248;2023-06-19T02:04:02;3.10;;;2.10;;
78891;SDS011;68368;51.728;5.248;2023-06-19T02:06:06;3.70;;;2.10;;
78891;SDS011;68368;51.728;5.248;2023-06-19T02:08:09;3.70;;;2.10;;
78891;SDS011;68368;51.728;5.248;2023-06-19T02:10:12;3.50;;;1.80;;
78891;SDS011;68368;51.728;5.248;2023-06-19T02:12:21;2.60;;;1.70;;
78891;SDS011;68368;51.728;5.248;2023-06-19T02:14:24;3.80;;;2.20;;
78891;SDS011;68368;51.728;5.248;2023-06-19T02:16:28;3.50;;;2.20;;
78891;SDS011;68368;51.728;5.248;2023-06-19T02:18:31;5.00;;;2.10;;
78891;SDS011;68368;51.728;5.248;2023-06-19T02:20:34;4.70;;;2.30;;
78891;SDS011;68368;51.728;5.248;2023-06-19T02:22:38;2.90;;;2.10;;
78891;SDS011;68368;51.728;5.248;2023-06-19T02:24:42;4.20;;;2.10;;
78891;SDS011;68368;51.728;5.248;2023-06-19T02:26:45;3.30;;;2.10;;
78891;SDS011;68368;51.728;5.248;2023-06-19T02:28:49;3.00;;;2.10;;
78891;SDS011;68368;51.728;5.248;2023-06-19T02:30:53;3.50;;;2.40;;
78891;SDS011;68368;51.728;5.248;2023-06-19T02:32:57;5.10;;;2.40;;
78891;SDS011;68368;51.728;5.248;2023-06-19T02:35:01;3.60;;;2.20;;
78891;SDS011;68368;51.728;5.248;2023-06-19T02:37:06;4.50;;;2.30;;
78891;SDS011;68368;51.728;5.248;2023-06-19T02:39:10;3.00;;;1.50;;
78891;SDS011;68368;51.728;5.248;2023-06-19T02:41:14;3.80;;;1.80;;
78891;SDS011;68368;51.728;5.248;2023-06-19T02:43:17;3.40;;;1.80;;
78891;SDS011;68368;51.728;5.248;2023-06-19T02:45:21;3.40;;;2.00;;
78891;SDS011;68368;51.728;5.248;2023-06-19T02:47:26;6.20;;;2.70;;
78891;SDS011;68368;51.728;5.248;2023-06-19T02:49:30;4.10;;;2.30;;
78891;SDS011;68368;51.728;5.248;2023-06-19T02:51:35;3.20;;;2.30;;
78891;SDS011;68368;51.728;5.248;2023-06-19T02:53:39;3.80;;;2.00;;
78891;SDS011;68368;51.728;5.248;2023-06-19T02:55:43;4.80;;;2.10;;
78891;SDS011;68368;51.728;5.248;2023-06-19T02:57:46;4.10;;;2.70;;
78891;SDS011;68368;51.728;5.248;2023-06-19T02:59:49;3.70;;;2.10;;
78891;SDS011;68368;51.728;5.248;2023-06-19T03:01:54;3.40;;;2.40;;
78891;SDS011;68368;51.728;5.248;2023-06-19T03:03:57;3.80;;;2.20;;
78891;SDS011;68368;51.728;5.248;2023-06-19T03:06:01;4.50;;;2.30;;
78891;SDS011;68368;51.728;5.248;2023-06-19T03:08:05;4.50;;;2.20;;
78891;SDS011;68368;51.728;5.248;2023-06-19T03:10:11;3.20;;;2.20;;
78891;SDS011;68368;51.728;5.248;2023-06-19T03:12:15;5.50;;;2.10;;
78891;SDS011;68368;51.728;5.248;2023-06-19T03:14:19;3.30;;;2.40;;
78891;SDS011;68368;51.728;5.248;2023-06-19T03:16:24;3.40;;;2.30;;
78891;SDS011;68368;51.728;5.248;2023-06-19T03:18:28;3.50;;;1.90;;
78891;SDS011;68368;51.728;5.248;2023-06-19T03:20:33;3.50;;;2.30;;
78891;SDS011;68368;51.728;5.248;2023-06-19T03:22:37;5.00;;;2.20;;
78891;SDS011;68368;51.728;5.248;2023-06-19T03:24:41;4.60;;;2.70;;
78891;SDS011;68368;51.728;5.248;2023-06-19T03:26:45;4.50;;;2.30;;
78891;SDS011;68368;51.728;5.248;2023-06-19T03:28:49;3.80;;;2.70;;
78891;SDS011;68368;51.728;5.248;2023-06-19T03:30:52;3.10;;;2.30;;
78891;SDS011;68368;51.728;5.248;2023-06-19T03:32:56;5.20;;;2.90;;
78891;SDS011;68368;51.728;5.248;2023-06-19T03:35:00;4.50;;;3.00;;
78891;SDS011;68368;51.728;5.248;2023-06-19T03:37:05;3.90;;;2.60;;
78891;SDS011;68368;51.728;5.248;2023-06-19T03:39:12;4.30;;;2.60;;
78891;SDS011;68368;51.728;5.248;2023-06-19T03:41:15;5.60;;;2.70;;
78891;SDS011;68368;51.728;5.248;2023-06-19T03:43:20;4.60;;;2.80;;
78891;SDS011;68368;51.728;5.248;2023-06-19T03:45:23;4.40;;;2.90;;
78891;SDS011;68368;51.728;5.248;2023-06-19T03:47:27;4.10;;;2.60;;
78891;SDS011;68368;51.728;5.248;2023-06-19T03:49:30;4.70;;;2.80;;
78891;SDS011;68368;51.728;5.248;2023-06-19T03:51:34;5.80;;;3.00;;
78891;SDS011;68368;51.728;5.248;2023-06-19T03:53:38;6.80;;;3.50;;
78891;SDS011;68368;51.728;5.248;2023-06-19T03:55:41;5.30;;;3.10;;
78891;SDS011;68368;51.728;5.248;2023-06-19T03:57:44;4.40;;;3.30;;
78891;SDS011;68368;51.728;5.248;2023-06-19T03:59:49;5.70;;;3.50;;
78891;SDS011;68368;51.728;5.248;2023-06-19T04:01:52;4.10;;;2.70;;
78891;SDS011;68368;51.728;5.248;2023-06-19T04:03:56;6.50;;;3.20;;
78891;SDS011;68368;51.728;5.248;2023-06-19T04:05:59;4.80;;;3.00;;
78891;SDS011;68368;51.728;5.248;2023-06-19T04:08:06;5.90;;;3.20;;
78891;SDS011;68368;51.728;5.248;2023-06-19T04:10:11;5.10;;;3.50;;
78891;SDS011;68368;51.728;5.248;2023-06-19T04:12:14;4.20;;;3.60;;
78891;SDS011;68368;51.728;5.248;2023-06-19T04:14:18;5.80;;;3.50;;
78891;SDS011;68368;51.728;5.248;2023-06-19T04:16:21;7.20;;;3.60;;
78891;SDS011;68368;51.728;5.248;2023-06-19T04:18:25;6.20;;;3.70;;
78891;SDS011;68368;51.728;5.248;2023-06-19T04:20:30;6.40;;;4.50;;
78891;SDS011;68368;51.728;5.248;2023-06-19T04:22:34;4.50;;;3.60;;
78891;SDS011;68368;51.728;5.248;2023-06-19T04:24:37;6.60;;;3.60;;
78891;SDS011;68368;51.728;5.248;2023-06-19T04:26:41;6.90;;;4.20;;
78891;SDS011;68368;51.728;5.248;2023-06-19T04:28:45;6.20;;;4.70;;
78891;SDS011;68368;51.728;5.248;2023-06-19T04:30:49;5.60;;;4.10;;
78891;SDS011;68368;51.728;5.248;2023-06-19T04:32:54;5.40;;;3.90;;
78891;SDS011;68368;51.728;5.248;2023-06-19T04:34:57;7.70;;;4.40;;
78891;SDS011;68368;51.728;5.248;2023-06-19T04:37:01;6.90;;;4.80;;
78891;SDS011;68368;51.728;5.248;2023-06-19T04:39:08;6.40;;;4.60;;
78891;SDS011;68368;51.728;5.248;2023-06-19T04:41:11;6.80;;;4.70;;
78891;SDS011;68368;51.728;5.248;2023-06-19T04:43:15;6.50;;;5.10;;
78891;SDS011;68368;51.728;5.248;2023-06-19T04:45:19;9.00;;;5.40;;
78891;SDS011;68368;51.728;5.248;2023-06-19T04:47:23;8.30;;;5.60;;
78891;SDS011;68368;51.728;5.248;2023-06-19T04:49:28;10.20;;;5.70;;
78891;SDS011;68368;51.728;5.248;2023-06-19T04:51:32;8.90;;;6.10;;
78891;SDS011;68368;51.728;5.248;2023-06-19T04:53:36;12.00;;;6.40;;
78891;SDS011;68368;51.728;5.248;2023-06-19T04:55:41;8.70;;;6.70;;
78891;SDS011;68368;51.728;5.248;2023-06-19T04:57:45;8.90;;;6.60;;
78891;SDS011;68368;51.728;5.248;2023-06-19T04:59:48;8.20;;;6.40;;
78891;SDS011;68368;51.728;5.248;2023-06-19T05:01:52;9.60;;;6.90;;
78891;SDS011;68368;51.728;5.248;2023-06-19T05:03:55;8.70;;;6.10;;
78891;SDS011;68368;51.728;5.248;2023-06-19T05:05:59;9.90;;;6.70;;
78891;SDS011;68368;51.728;5.248;2023-06-19T05:08:02;9.60;;;7.00;;
78891;SDS011;68368;51.728;5.248;2023-06-19T05:10:06;9.60;;;6.30;;
78891;SDS011;68368;51.728;5.248;2023-06-19T05:12:11;10.10;;;7.40;;
78891;SDS011;68368;51.728;5.248;2023-06-19T05:14:14;8.90;;;6.90;;
78891;SDS011;68368;51.728;5.248;2023-06-19T05:16:20;10.00;;;7.10;;
78891;SDS011;68368;51.728;5.248;2023-06-19T05:18:24;9.50;;;6.60;;
78891;SDS011;68368;51.728;5.248;2023-06-19T05:20:27;8.90;;;6.80;;
78891;SDS011;68368;51.728;5.248;2023-06-19T05:22:31;7.80;;;6.80;;
78891;SDS011;68368;51.728;5.248;2023-06-19T05:24:34;8.50;;;7.40;;
78891;SDS011;68368;51.728;5.248;2023-06-19T05:26:37;9.00;;;7.30;;
78891;SDS011;68368;51.728;5.248;2023-06-19T05:28:42;9.10;;;7.00;;
78891;SDS011;68368;51.728;5.248;2023-06-19T05:30:45;8.40;;;6.70;;
78891;SDS011;68368;51.728;5.248;2023-06-19T05:32:48;8.10;;;6.60;;
78891;SDS011;68368;51.728;5.248;2023-06-19T05:34:53;7.20;;;5.50;;
78891;SDS011;68368;51.728;5.248;2023-06-19T05:36:57;7.40;;;5.50;;
78891;SDS011;68368;51.728;5.248;2023-06-19T05:39:00;8.50;;;6.40;;
78891;SDS011;68368;51.728;5.248;2023-06-19T05:41:05;7.10;;;6.10;;
78891;SDS011;68368;51.728;5.248;2023-06-19T05:43:09;8.10;;;5.40;;
78891;SDS011;68368;51.728;5.248;2023-06-19T05:45:14;7.90;;;6.30;;
78891;SDS011;68368;51.728;5.248;2023-06-19T05:47:17;6.60;;;5.70;;
78891;SDS011;68368;51.728;5.248;2023-06-19T05:49:23;6.40;;;5.30;;
78891;SDS011;68368;51.728;5.248;2023-06-19T05:51:28;6.00;;;5.00;;
78891;SDS011;68368;51.728;5.248;2023-06-19T05:53:34;7.90;;;5.00;;
78891;SDS011;68368;51.728;5.248;2023-06-19T05:55:37;7.10;;;5.10;;
78891;SDS011;68368;51.728;5.248;2023-06-19T05:57:40;5.90;;;5.30;;
78891;SDS011;68368;51.728;5.248;2023-06-19T05:59:44;7.20;;;5.90;;
78891;SDS011;68368;51.728;5.248;2023-06-19T06:01:48;7.00;;;4.70;;
78891;SDS011;68368;51.728;5.248;2023-06-19T06:03:51;6.70;;;5.30;;
78891;SDS011;68368;51.728;5.248;2023-06-19T06:05:55;7.70;;;6.30;;
78891;SDS011;68368;51.728;5.248;2023-06-19T06:07:59;7.90;;;6.40;;
78891;SDS011;68368;51.728;5.248;2023-06-19T06:10:03;8.70;;;6.30;;
78891;SDS011;68368;51.728;5.248;2023-06-19T06:12:09;8.50;;;6.30;;
78891;SDS011;68368;51.728;5.248;2023-06-19T06:14:14;9.30;;;6.00;;
78891;SDS011;68368;51.728;5.248;2023-06-19T06:16:20;9.00;;;7.10;;
78891;SDS011;68368;51.728;5.248;2023-06-19T06:18:25;10.10;;;7.00;;
78891;SDS011;68368;51.728;5.248;2023-06-19T06:20:28;7.80;;;6.60;;
78891;SDS011;68368;51.728;5.248;2023-06-19T06:22:31;7.40;;;6.60;;
78891;SDS011;68368;51.728;5.248;2023-06-19T06:24:35;6.60;;;5.80;;
78891;SDS011;68368;51.728;5.248;2023-06-19T06:26:38;7.00;;;6.20;;
78891;SDS011;68368;51.728;5.248;2023-06-19T06:28:42;8.50;;;6.40;;
78891;SDS011;68368;51.728;5.248;2023-06-19T06:30:45;7.00;;;4.90;;
78891;SDS011;68368;51.728;5.248;2023-06-19T06:32:51;8.50;;;6.70;;
78891;SDS011;68368;51.728;5.248;2023-06-19T06:34:55;7.20;;;6.20;;
78891;SDS011;68368;51.728;5.248;2023-06-19T06:36:59;7.70;;;6.90;;
78891;SDS011;68368;51.728;5.248;2023-06-19T06:39:04;6.90;;;6.00;;
78891;SDS011;68368;51.728;5.248;2023-06-19T06:41:07;8.00;;;6.00;;
78891;SDS011;68368;51.728;5.248;2023-06-19T06:43:11;9.40;;;6.30;;
78891;SDS011;68368;51.728;5.248;2023-06-19T06:45:14;6.70;;;6.00;;
78891;SDS011;68368;51.728;5.248;2023-06-19T06:47:18;8.80;;;6.10;;
78891;SDS011;68368;51.728;5.248;2023-06-19T06:49:21;7.70;;;6.60;;
78891;SDS011;68368;51.728;5.248;2023-06-19T06:51:24;8.60;;;6.70;;
78891;SDS011;68368;51.728;5.248;2023-06-19T06:53:27;7.00;;;6.20;;
78891;SDS011;68368;51.728;5.248;2023-06-19T06:55:31;9.30;;;7.00;;
78891;SDS011;68368;51.728;5.248;2023-06-19T06:57:34;9.40;;;7.10;;
78891;SDS011;68368;51.728;5.248;2023-06-19T06:59:37;8.20;;;6.70;;
78891;SDS011;68368;51.728;5.248;2023-06-19T07:01:42;8.70;;;7.50;;
78891;SDS011;68368;51.728;5.248;2023-06-19T07:03:45;9.50;;;7.40;;
78891;SDS011;68368;51.728;5.248;2023-06-19T07:05:49;7.90;;;7.10;;
78891;SDS011;68368;51.728;5.248;2023-06-19T07:07:53;8.10;;;7.30;;
78891;SDS011;68368;51.728;5.248;2023-06-19T07:09:57;10.70;;;7.50;;
78891;SDS011;68368;51.728;5.248;2023-06-19T07:12:01;8.00;;;7.20;;
78891;SDS011;68368;51.728;5.248;2023-06-19T07:14:07;7.60;;;6.70;;
78891;SDS011;68368;51.728;5.248;2023-06-19T07:16:11;8.40;;;7.30;;
78891;SDS011;68368;51.728;5.248;2023-06-19T07:18:15;9.90;;;7.50;;
78891;SDS011;68368;51.728;5.248;2023-06-19T07:20:19;9.40;;;7.70;;
78891;SDS011;68368;51.728;5.248;2023-06-19T07:22:22;8.90;;;7.30;;
78891;SDS011;68368;51.728;5.248;2023-06-19T07:24:28;8.90;;;7.20;;
78891;SDS011;68368;51.728;5.248;2023-06-19T07:26:33;8.60;;;7.50;;
78891;SDS011;68368;51.728;5.248;2023-06-19T07:28:36;9.10;;;8.20;;
78891;SDS011;68368;51.728;5.248;2023-06-19T07:30:39;8.50;;;7.40;;
78891;SDS011;68368;51.728;5.248;2023-06-19T07:32:44;8.00;;;7.20;;
78891;SDS011;68368;51.728;5.248;2023-06-19T07:34:53;9.50;;;7.40;;
78891;SDS011;68368;51.728;5.248;2023-06-19T07:36:58;8.60;;;7.70;;
78891;SDS011;68368;51.728;5.248;2023-06-19T07:39:02;8.70;;;7.70;;
78891;SDS011;68368;51.728;5.248;2023-06-19T07:41:06;8.80;;;7.70;;
78891;SDS011;68368;51.728;5.248;2023-06-19T07:43:10;7.80;;;6.80;;
78891;SDS011;68368;51.728;5.248;2023-06-19T07:45:14;8.70;;;7.80;;
78891;SDS011;68368;51.728;5.248;2023-06-19T07:47:17;9.60;;;7.90;;
78891;SDS011;68368;51.728;5.248;2023-06-19T07:49:20;8.70;;;7.80;;
78891;SDS011;68368;51.728;5.248;2023-06-19T07:51:24;8.90;;;8.10;;
78891;SDS011;68368;51.728;5.248;2023-06-19T07:53:28;9.50;;;8.40;;
78891;SDS011;68368;51.728;5.248;2023-06-19T07:55:33;9.40;;;7.70;;
78891;SDS011;68368;51.728;5.248;2023-06-19T07:57:37;10.40;;;8.70;;
78891;SDS011;68368;51.728;5.248;2023-06-19T07:59:42;10.00;;;9.00;;
78891;SDS011;68368;51.728;5.248;2023-06-19T08:01:45;9.90;;;8.70;;
78891;SDS011;68368;51.728;5.248;2023-06-19T08:03:49;11.40;;;9.60;;
78891;SDS011;68368;51.728;5.248;2023-06-19T08:05:52;8.90;;;8.00;;
78891;SDS011;68368;51.728;5.248;2023-06-19T08:07:58;10.20;;;9.20;;
78891;SDS011;68368;51.728;5.248;2023-06-19T08:10:01;10.00;;;8.40;;
78891;SDS011;68368;51.728;5.248;2023-06-19T08:12:06;10.60;;;8.70;;
78891;SDS011;68368;51.728;5.248;2023-06-19T08:14:10;10.10;;;8.90;;
78891;SDS011;68368;51.728;5.248;2023-06-19T08:16:13;12.80;;;10.70;;
78891;SDS011;68368;51.728;5.248;2023-06-19T08:18:17;12.90;;;9.80;;
78891;SDS011;68368;51.728;5.248;2023-06-19T08:20:20;12.10;;;11.00;;
78891;SDS011;68368;51.728;5.248;2023-06-19T08:22:23;11.10;;;10.10;;
78891;SDS011;68368;51.728;5.248;2023-06-19T08:24:28;11.50;;;10.30;;
78891;SDS011;68368;51.728;5.248;2023-06-19T08:26:31;11.60;;;10.50;;
78891;SDS011;68368;51.728;5.248;2023-06-19T08:28:35;13.50;;;11.70;;
78891;SDS011;68368;51.728;5.248;2023-06-19T08:30:40;12.60;;;11.40;;
78891;SDS011;68368;51.728;5.248;2023-06-19T08:32:48;11.80;;;10.70;;
78891;SDS011;68368;51.728;5.248;2023-06-19T08:34:56;13.20;;;11.90;;
78891;SDS011;68368;51.728;5.248;2023-06-19T08:37:00;13.80;;;12.60;;
78891;SDS011;68368;51.728;5.248;2023-06-19T08:39:03;13.50;;;12.20;;
78891;SDS011;68368;51.728;5.248;2023-06-19T08:41:06;11.80;;;10.60;;
78891;SDS011;68368;51.728;5.248;2023-06-19T08:43:11;11.90;;;10.80;;
78891;SDS011;68368;51.728;5.248;2023-06-19T08:45:17;13.30;;;11.90;;
78891;SDS011;68368;51.728;5.248;2023-06-19T08:47:21;13.00;;;11.70;;
78891;SDS011;68368;51.728;5.248;2023-06-19T08:49:33;12.90;;;11.70;;
78891;SDS011;68368;51.728;5.248;2023-06-19T08:51:38;12.70;;;11.30;;
78891;SDS011;68368;51.728;5.248;2023-06-19T08:53:47;12.20;;;11.00;;
78891;SDS011;68368;51.728;5.248;2023-06-19T08:56:02;14.30;;;12.80;;
78891;SDS011;68368;51.728;5.248;2023-06-19T08:58:07;13.30;;;11.60;;
78891;SDS011;68368;51.728;5.248;2023-06-19T09:00:22;12.60;;;11.40;;
78891;SDS011;68368;51.728;5.248;2023-06-19T09:02:35;12.90;;;11.60;;
78891;SDS011;68368;51.728;5.248;2023-06-19T09:04:42;12.10;;;11.00;;
78891;SDS011;68368;51.728;5.248;2023-06-19T09:06:50;13.50;;;12.20;;
78891;SDS011;68368;51.728;5.248;2023-06-19T09:08:58;12.60;;;11.50;;
78891;SDS011;68368;51.728;5.248;2023-06-19T09:11:02;11.90;;;10.80;;
78891;SDS011;68368;51.728;5.248;2023-06-19T09:13:06;12.80;;;11.60;;
78891;SDS011;68368;51.728;5.248;2023-06-19T09:15:13;12.70;;;11.30;;
78891;SDS011;68368;51.728;5.248;2023-06-19T09:17:19;12.10;;;10.90;;
78891;SDS011;68368;51.728;5.248;2023-06-19T09:19:24;12.40;;;11.20;;
78891;SDS011;68368;51.728;5.248;2023-06-19T09:21:29;12.40;;;11.10;;
78891;SDS011;68368;51.728;5.248;2023-06-19T09:23:32;13.00;;;11.70;;
78891;SDS011;68368;51.728;5.248;2023-06-19T09:25:44;12.20;;;10.70;;
78891;SDS011;68368;51.728;5.248;2023-06-19T09:27:49;15.10;;;11.90;;
78891;SDS011;68368;51.728;5.248;2023-06-19T09:29:52;12.20;;;11.00;;
78891;SDS011;68368;51.728;5.248;2023-06-19T09:31:55;11.90;;;10.70;;
78891;SDS011;68368;51.728;5.248;2023-06-19T09:33:58;13.00;;;11.80;;
78891;SDS011;68368;51.728;5.248;2023-06-19T09:36:03;12.40;;;11.20;;
78891;SDS011;68368;51.728;5.248;2023-06-19T09:38:07;11.80;;;10.60;;
78891;SDS011;68368;51.728;5.248;2023-06-19T09:40:13;10.80;;;9.70;;
78891;SDS011;68368;51.728;5.248;2023-06-19T09:42:16;11.50;;;10.30;;
78891;SDS011;68368;51.728;5.248;2023-06-19T09:44:23;12.50;;;11.30;;
78891;SDS011;68368;51.728;5.248;2023-06-19T09:46:30;13.40;;;12.00;;
78891;SDS011;68368;51.728;5.248;2023-06-19T09:48:35;13.40;;;11.90;;
78891;SDS011;68368;51.728;5.248;2023-06-19T09:53:11;11.90;;;10.30;;
78891;SDS011;68368;51.728;5.248;2023-06-19T09:55:15;14.10;;;12.70;;
78891;SDS011;68368;51.728;5.248;2023-06-19T09:57:20;13.80;;;12.40;;
78891;SDS011;68368;51.728;5.248;2023-06-19T09:59:25;11.70;;;10.60;;
78891;SDS011;68368;51.728;5.248;2023-06-19T10:01:30;13.20;;;11.70;;
78891;SDS011;68368;51.728;5.248;2023-06-19T10:03:36;12.50;;;11.30;;
78891;SDS011;68368;51.728;5.248;2023-06-19T10:05:41;13.40;;;11.90;;
78891;SDS011;68368;51.728;5.248;2023-06-19T10:07:45;13.20;;;11.70;;
78891;SDS011;68368;51.728;5.248;2023-06-19T10:10:01;15.40;;;13.10;;
78891;SDS011;68368;51.728;5.248;2023-06-19T10:12:12;12.10;;;10.60;;
78891;SDS011;68368;51.728;5.248;2023-06-19T10:14:20;12.40;;;11.00;;
78891;SDS011;68368;51.728;5.248;2023-06-19T10:16:26;11.30;;;10.00;;
78891;SDS011;68368;51.728;5.248;2023-06-19T10:18:29;12.20;;;10.60;;
78891;SDS011;68368;51.728;5.248;2023-06-19T10:20:45;12.10;;;10.90;;
78891;SDS011;68368;51.728;5.248;2023-06-19T10:23:01;12.10;;;10.90;;
78891;SDS011;68368;51.728;5.248;2023-06-19T10:25:07;13.20;;;10.90;;
78891;SDS011;68368;51.728;5.248;2023-06-19T10:27:25;11.50;;;10.20;;
78891;SDS011;68368;51.728;5.248;2023-06-19T10:29:41;12.20;;;10.90;;
78891;SDS011;68368;51.728;5.248;2023-06-19T10:31:46;11.70;;;9.80;;
78891;SDS011;68368;51.728;5.248;2023-06-19T10:33:49;11.60;;;10.40;;
78891;SDS011;68368;51.728;5.248;2023-06-19T10:35:53;10.30;;;9.30;;
78891;SDS011;68368;51.728;5.248;2023-06-19T10:37:59;13.20;;;10.10;;
78891;SDS011;68368;51.728;5.248;2023-06-19T10:40:04;11.20;;;10.10;;
78891;SDS011;68368;51.728;5.248;2023-06-19T10:42:16;11.70;;;10.50;;
78891;SDS011;68368;51.728;5.248;2023-06-19T10:44:24;11.60;;;9.90;;
78891;SDS011;68368;51.728;5.248;2023-06-19T10:46:30;12.80;;;11.50;;
78891;SDS011;68368;51.728;5.248;2023-06-19T10:48:34;13.40;;;12.00;;
78891;SDS011;68368;51.728;5.248;2023-06-19T10:50:42;13.20;;;10.60;;
78891;SDS011;68368;51.728;5.248;2023-06-19T10:52:46;12.20;;;10.90;;
78891;SDS011;68368;51.728;5.248;2023-06-19T10:54:54;11.90;;;10.60;;
78891;SDS011;68368;51.728;5.248;2023-06-19T10:57:03;13.20;;;11.60;;
78891;SDS011;68368;51.728;5.248;2023-06-19T10:59:10;14.10;;;12.60;;
78891;SDS011;68368;51.728;5.248;2023-06-19T11:01:14;13.50;;;12.20;;
78891;SDS011;68368;51.728;5.248;2023-06-19T11:03:17;14.40;;;13.00;;
78891;SDS011;68368;51.728;5.248;2023-06-19T11:05:22;10.70;;;9.70;;
78891;SDS011;68368;51.728;5.248;2023-06-19T11:07:27;14.50;;;10.90;;
78891;SDS011;68368;51.728;5.248;2023-06-19T11:09:30;12.60;;;10.60;;
78891;SDS011;68368;51.728;5.248;2023-06-19T11:11:39;11.70;;;10.60;;
78891;SDS011;68368;51.728;5.248;2023-06-19T11:13:44;13.20;;;11.20;;
78891;SDS011;68368;51.728;5.248;2023-06-19T11:15:49;11.60;;;10.50;;
78891;SDS011;68368;51.728;5.248;2023-06-19T11:17:53;11.20;;;9.80;;
78891;SDS011;68368;51.728;5.248;2023-06-19T11:19:57;11.10;;;9.00;;
78891;SDS011;68368;51.728;5.248;2023-06-19T11:22:02;9.80;;;8.40;;
78891;SDS011;68368;51.728;5.248;2023-06-19T11:24:14;11.00;;;8.40;;
78891;SDS011;68368;51.728;5.248;2023-06-19T11:26:18;9.50;;;8.60;;
78891;SDS011;68368;51.728;5.248;2023-06-19T11:28:28;10.20;;;8.00;;
78891;SDS011;68368;51.728;5.248;2023-06-19T11:30:32;9.30;;;7.50;;
78891;SDS011;68368;51.728;5.248;2023-06-19T11:32:37;8.90;;;6.90;;
78891;SDS011;68368;51.728;5.248;2023-06-19T11:34:40;8.00;;;7.20;;
78891;SDS011;68368;51.728;5.248;2023-06-19T11:36:45;9.00;;;8.10;;
78891;SDS011;68368;51.728;5.248;2023-06-19T11:38:48;8.90;;;7.30;;
78891;SDS011;68368;51.728;5.248;2023-06-19T11:40:55;9.80;;;8.20;;
78891;SDS011;68368;51.728;5.248;2023-06-19T11:43:00;10.00;;;8.00;;
78891;SDS011;68368;51.728;5.248;2023-06-19T11:45:04;9.00;;;7.40;;
78891;SDS011;68368;51.728;5.248;2023-06-19T11:47:10;9.20;;;8.10;;
78891;SDS011;68368;51.728;5.248;2023-06-19T11:49:14;10.50;;;9.10;;
78891;SDS011;68368;51.728;5.248;2023-06-19T11:51:20;9.60;;;8.00;;
78891;SDS011;68368;51.728;5.248;2023-06-19T11:55:28;9.40;;;7.50;;
78891;SDS011;68368;51.728;5.248;2023-06-19T11:57:33;7.50;;;6.00;;
78891;SDS011;68368;51.728;5.248;2023-06-19T11:59:37;7.70;;;6.30;;
78891;SDS011;68368;51.728;5.248;2023-06-19T12:01:41;7.80;;;5.80;;
78891;SDS011;68368;51.728;5.248;2023-06-19T12:03:46;7.20;;;6.10;;
78891;SDS011;68368;51.728;5.248;2023-06-19T12:05:52;7.10;;;6.20;;
78891;SDS011;68368;51.728;5.248;2023-06-19T12:07:56;9.10;;;7.50;;
78891;SDS011;68368;51.728;5.248;2023-06-19T12:09:59;8.80;;;6.70;;
78891;SDS011;68368;51.728;5.248;2023-06-19T12:12:03;7.20;;;5.20;;
78891;SDS011;68368;51.728;5.248;2023-06-19T12:14:08;7.40;;;5.80;;
78891;SDS011;68368;51.728;5.248;2023-06-19T12:16:11;5.90;;;5.30;;
78891;SDS011;68368;51.728;5.248;2023-06-19T12:18:15;6.40;;;5.30;;
78891;SDS011;68368;51.728;5.248;2023-06-19T12:22:22;7.20;;;5.40;;
78891;SDS011;68368;51.728;5.248;2023-06-19T12:24:26;8.20;;;6.10;;
78891;SDS011;68368;51.728;5.248;2023-06-19T12:26:29;6.70;;;5.50;;
78891;SDS011;68368;51.728;5.248;2023-06-19T12:28:33;7.80;;;5.60;;
78891;SDS011;68368;51.728;5.248;2023-06-19T12:30:37;9.10;;;6.00;;
78891;SDS011;68368;51.728;5.248;2023-06-19T12:32:45;7.30;;;6.00;;
78891;SDS011;68368;51.728;5.248;2023-06-19T12:34:49;7.70;;;5.30;;